Portada
METAR-TAF:

METAR-TAF

Aeropuertos :

Aeropuerto de Logroño-Agoncillo

Logroño, España

latitud: 42-27N, longitud: 002-20W, altitud: 353 m

Observación

El informe se hizo hace 20 minutos, a las 17:00 UTC
Viento 11 kt del oeste-noroeste, variando entre oeste y norte-noroeste
Temperatura 21°C
Humedad 49%
Presión 1026 hPa
Visibilidad 10 km o más
Escasas nubes a una altura de 4000 ft

METAR: LELO 261700Z 29011KT 260V330 9999 FEW040 21/10 Q1026

Hora: 19:20 (17:20 UTC)

Pronóstico

El informe se hizo hace 3 horas y 20 minutos, a las 14:00 UTC
Pronóstico válido del 26 a las 15 UTC al 27 a las 15 UTC
Viento 8 kt del noroeste
Visibilidad 10 km o más
Nubes dispersas a una altura de 4000 ft

TAF: LELO 261400Z 2615/2715 31008KT 9999 SCT040 TX27/2715Z TN12/2706Z

Observaciones y pronósticos meteorológicos de más de 4000 aeropuertos (mensajes METAR y TAF).

Los puntos amarillos y rojos representan las estaciones disponibles.

Ponga el ratón en el punto deseado para ver el nombre de la estación.

Haga clic para ver las observaciones y los pronósticos meteorológicos.

Para cambiar el mapa : haga clic en los botones verdes con una cruz de color negro para hacer un zoom, en el botón verde con un guión para alejar o en las flechas verdes para mapas adyacentes.


METAR-TAF: